sensor_id;sensor_type;location;lat;lon;timestamp;P1;durP1;ratioP1;P2;durP2;ratioP2
12145;SDS011;6136;47.032;15.398;2023-03-01T00:01:47;18.40;;;11.63;;
12145;SDS011;6136;47.032;15.398;2023-03-01T00:04:15;20.60;;;11.73;;
12145;SDS011;6136;47.032;15.398;2023-03-01T00:06:43;18.93;;;11.00;;
12145;SDS011;6136;47.032;15.398;2023-03-01T00:09:14;14.97;;;9.57;;
12145;SDS011;6136;47.032;15.398;2023-03-01T00:11:44;17.10;;;10.47;;
12145;SDS011;6136;47.032;15.398;2023-03-01T00:14:12;17.43;;;10.37;;
12145;SDS011;6136;47.032;15.398;2023-03-01T00:16:43;21.40;;;11.43;;
12145;SDS011;6136;47.032;15.398;2023-03-01T00:19:13;16.03;;;11.03;;
12145;SDS011;6136;47.032;15.398;2023-03-01T00:21:42;17.40;;;10.60;;
12145;SDS011;6136;47.032;15.398;2023-03-01T00:24:11;17.50;;;10.73;;
12145;SDS011;6136;47.032;15.398;2023-03-01T00:26:40;14.13;;;9.37;;
12145;SDS011;6136;47.032;15.398;2023-03-01T00:29:09;19.13;;;10.77;;
12145;SDS011;6136;47.032;15.398;2023-03-01T00:31:37;15.17;;;9.10;;
12145;SDS011;6136;47.032;15.398;2023-03-01T00:34:05;17.97;;;10.73;;
12145;SDS011;6136;47.032;15.398;2023-03-01T00:36:36;16.27;;;10.07;;
12145;SDS011;6136;47.032;15.398;2023-03-01T00:39:05;16.47;;;10.17;;
12145;SDS011;6136;47.032;15.398;2023-03-01T00:41:37;16.23;;;10.30;;
12145;SDS011;6136;47.032;15.398;2023-03-01T00:44:08;14.63;;;9.70;;
12145;SDS011;6136;47.032;15.398;2023-03-01T00:46:37;16.10;;;9.70;;
12145;SDS011;6136;47.032;15.398;2023-03-01T00:49:06;18.30;;;10.27;;
12145;SDS011;6136;47.032;15.398;2023-03-01T00:51:34;17.97;;;10.30;;
12145;SDS011;6136;47.032;15.398;2023-03-01T00:54:02;17.30;;;10.30;;
12145;SDS011;6136;47.032;15.398;2023-03-01T00:56:31;17.30;;;10.93;;
12145;SDS011;6136;47.032;15.398;2023-03-01T00:58:59;15.10;;;9.57;;
12145;SDS011;6136;47.032;15.398;2023-03-01T01:01:29;17.10;;;10.13;;
12145;SDS011;6136;47.032;15.398;2023-03-01T01:03:59;17.83;;;10.47;;
12145;SDS011;6136;47.032;15.398;2023-03-01T01:06:30;18.93;;;10.67;;
12145;SDS011;6136;47.032;15.398;2023-03-01T01:09:00;16.17;;;10.13;;
12145;SDS011;6136;47.032;15.398;2023-03-01T01:11:29;16.10;;;10.00;;
12145;SDS011;6136;47.032;15.398;2023-03-01T01:13:58;17.60;;;12.07;;
12145;SDS011;6136;47.032;15.398;2023-03-01T01:16:29;20.53;;;11.50;;
12145;SDS011;6136;47.032;15.398;2023-03-01T01:18:58;21.30;;;12.67;;
12145;SDS011;6136;47.032;15.398;2023-03-01T01:21:27;23.93;;;13.13;;
12145;SDS011;6136;47.032;15.398;2023-03-01T01:23:55;23.17;;;13.77;;
12145;SDS011;6136;47.032;15.398;2023-03-01T01:26:25;21.80;;;12.87;;
12145;SDS011;6136;47.032;15.398;2023-03-01T01:28:55;23.67;;;12.80;;
12145;SDS011;6136;47.032;15.398;2023-03-01T01:31:24;21.50;;;12.93;;
12145;SDS011;6136;47.032;15.398;2023-03-01T01:33:54;22.60;;;13.07;;
12145;SDS011;6136;47.032;15.398;2023-03-01T01:36:23;20.83;;;13.47;;
12145;SDS011;6136;47.032;15.398;2023-03-01T01:38:51;18.93;;;12.57;;
12145;SDS011;6136;47.032;15.398;2023-03-01T01:41:20;21.90;;;12.90;;
12145;SDS011;6136;47.032;15.398;2023-03-01T01:43:49;22.07;;;12.90;;
12145;SDS011;6136;47.032;15.398;2023-03-01T01:46:37;22.87;;;13.10;;
12145;SDS011;6136;47.032;15.398;2023-03-01T01:49:12;26.53;;;13.80;;
12145;SDS011;6136;47.032;15.398;2023-03-01T01:51:47;25.43;;;13.13;;
12145;SDS011;6136;47.032;15.398;2023-03-01T01:54:19;19.27;;;13.20;;
12145;SDS011;6136;47.032;15.398;2023-03-01T01:56:51;21.47;;;13.07;;
12145;SDS011;6136;47.032;15.398;2023-03-01T01:59:23;17.93;;;13.50;;
12145;SDS011;6136;47.032;15.398;2023-03-01T02:01:53;22.60;;;13.10;;
12145;SDS011;6136;47.032;15.398;2023-03-01T02:04:23;22.03;;;13.83;;
12145;SDS011;6136;47.032;15.398;2023-03-01T02:06:54;22.27;;;12.97;;
12145;SDS011;6136;47.032;15.398;2023-03-01T02:09:26;19.33;;;13.03;;
12145;SDS011;6136;47.032;15.398;2023-03-01T02:11:54;19.90;;;13.43;;
12145;SDS011;6136;47.032;15.398;2023-03-01T02:14:23;23.40;;;12.73;;
12145;SDS011;6136;47.032;15.398;2023-03-01T02:16:51;22.53;;;12.87;;
12145;SDS011;6136;47.032;15.398;2023-03-01T02:19:22;24.23;;;13.90;;
12145;SDS011;6136;47.032;15.398;2023-03-01T02:22:02;20.47;;;12.77;;
12145;SDS011;6136;47.032;15.398;2023-03-01T02:24:39;24.77;;;13.67;;
12145;SDS011;6136;47.032;15.398;2023-03-01T02:27:19;23.87;;;14.23;;
12145;SDS011;6136;47.032;15.398;2023-03-01T02:29:54;23.47;;;13.13;;
12145;SDS011;6136;47.032;15.398;2023-03-01T02:32:23;25.57;;;13.07;;
12145;SDS011;6136;47.032;15.398;2023-03-01T02:34:52;19.23;;;11.80;;
12145;SDS011;6136;47.032;15.398;2023-03-01T02:37:23;20.13;;;13.73;;
12145;SDS011;6136;47.032;15.398;2023-03-01T02:39:55;22.27;;;13.03;;
12145;SDS011;6136;47.032;15.398;2023-03-01T02:42:30;22.10;;;12.77;;
12145;SDS011;6136;47.032;15.398;2023-03-01T02:45:05;19.57;;;13.20;;
12145;SDS011;6136;47.032;15.398;2023-03-01T02:47:34;19.20;;;12.67;;
12145;SDS011;6136;47.032;15.398;2023-03-01T02:50:02;20.90;;;12.83;;
12145;SDS011;6136;47.032;15.398;2023-03-01T02:52:47;20.70;;;13.23;;
12145;SDS011;6136;47.032;15.398;2023-03-01T02:55:25;18.57;;;12.87;;
12145;SDS011;6136;47.032;15.398;2023-03-01T02:57:54;23.83;;;13.20;;
12145;SDS011;6136;47.032;15.398;2023-03-01T03:00:26;22.03;;;12.43;;
12145;SDS011;6136;47.032;15.398;2023-03-01T03:02:59;23.70;;;13.40;;
12145;SDS011;6136;47.032;15.398;2023-03-01T03:05:28;19.77;;;12.93;;
12145;SDS011;6136;47.032;15.398;2023-03-01T03:07:58;20.50;;;12.80;;
12145;SDS011;6136;47.032;15.398;2023-03-01T03:10:33;20.90;;;12.03;;
12145;SDS011;6136;47.032;15.398;2023-03-01T03:13:04;18.63;;;12.10;;
12145;SDS011;6136;47.032;15.398;2023-03-01T03:15:37;21.43;;;13.03;;
12145;SDS011;6136;47.032;15.398;2023-03-01T03:18:06;20.83;;;12.90;;
12145;SDS011;6136;47.032;15.398;2023-03-01T03:20:36;21.97;;;12.93;;
12145;SDS011;6136;47.032;15.398;2023-03-01T03:23:07;19.83;;;12.43;;
12145;SDS011;6136;47.032;15.398;2023-03-01T03:25:35;25.47;;;13.77;;
12145;SDS011;6136;47.032;15.398;2023-03-01T03:28:04;23.00;;;12.47;;
12145;SDS011;6136;47.032;15.398;2023-03-01T03:30:38;23.93;;;12.13;;
12145;SDS011;6136;47.032;15.398;2023-03-01T03:33:07;24.27;;;13.10;;
12145;SDS011;6136;47.032;15.398;2023-03-01T03:35:39;20.90;;;12.23;;
12145;SDS011;6136;47.032;15.398;2023-03-01T03:38:10;20.73;;;12.10;;
12145;SDS011;6136;47.032;15.398;2023-03-01T03:40:44;18.03;;;11.97;;
12145;SDS011;6136;47.032;15.398;2023-03-01T03:43:14;19.50;;;11.23;;
12145;SDS011;6136;47.032;15.398;2023-03-01T03:45:45;18.90;;;11.67;;
12145;SDS011;6136;47.032;15.398;2023-03-01T03:48:14;19.67;;;12.30;;
12145;SDS011;6136;47.032;15.398;2023-03-01T03:50:46;19.77;;;11.67;;
12145;SDS011;6136;47.032;15.398;2023-03-01T03:53:16;19.33;;;11.97;;
12145;SDS011;6136;47.032;15.398;2023-03-01T03:55:44;19.50;;;11.97;;
12145;SDS011;6136;47.032;15.398;2023-03-01T03:58:15;25.83;;;11.83;;
12145;SDS011;6136;47.032;15.398;2023-03-01T04:00:48;15.10;;;10.37;;
12145;SDS011;6136;47.032;15.398;2023-03-01T04:03:18;21.03;;;11.80;;
12145;SDS011;6136;47.032;15.398;2023-03-01T04:05:50;21.20;;;11.80;;
12145;SDS011;6136;47.032;15.398;2023-03-01T04:08:19;17.63;;;11.33;;
12145;SDS011;6136;47.032;15.398;2023-03-01T04:10:48;18.13;;;11.00;;
12145;SDS011;6136;47.032;15.398;2023-03-01T04:13:17;18.87;;;11.20;;
12145;SDS011;6136;47.032;15.398;2023-03-01T04:15:49;20.87;;;12.10;;
12145;SDS011;6136;47.032;15.398;2023-03-01T04:18:18;18.63;;;12.07;;
12145;SDS011;6136;47.032;15.398;2023-03-01T04:20:47;18.77;;;12.20;;
12145;SDS011;6136;47.032;15.398;2023-03-01T04:23:18;21.23;;;12.63;;
12145;SDS011;6136;47.032;15.398;2023-03-01T04:25:48;16.90;;;11.77;;
12145;SDS011;6136;47.032;15.398;2023-03-01T04:28:20;22.43;;;11.67;;
12145;SDS011;6136;47.032;15.398;2023-03-01T04:30:52;23.83;;;13.50;;
12145;SDS011;6136;47.032;15.398;2023-03-01T04:33:21;17.03;;;12.00;;
12145;SDS011;6136;47.032;15.398;2023-03-01T04:35:50;19.07;;;11.93;;
12145;SDS011;6136;47.032;15.398;2023-03-01T04:38:19;17.17;;;11.97;;
12145;SDS011;6136;47.032;15.398;2023-03-01T04:40:47;21.90;;;12.73;;
12145;SDS011;6136;47.032;15.398;2023-03-01T04:43:16;22.40;;;14.23;;
12145;SDS011;6136;47.032;15.398;2023-03-01T04:45:44;21.77;;;14.10;;
12145;SDS011;6136;47.032;15.398;2023-03-01T04:48:13;23.57;;;14.00;;
12145;SDS011;6136;47.032;15.398;2023-03-01T04:50:41;21.80;;;13.43;;
12145;SDS011;6136;47.032;15.398;2023-03-01T04:53:09;24.87;;;13.87;;
12145;SDS011;6136;47.032;15.398;2023-03-01T04:55:38;22.63;;;13.50;;
12145;SDS011;6136;47.032;15.398;2023-03-01T04:58:06;22.00;;;13.53;;
12145;SDS011;6136;47.032;15.398;2023-03-01T05:00:34;19.70;;;12.53;;
12145;SDS011;6136;47.032;15.398;2023-03-01T05:03:02;21.07;;;12.63;;
12145;SDS011;6136;47.032;15.398;2023-03-01T05:05:33;22.37;;;13.07;;
12145;SDS011;6136;47.032;15.398;2023-03-01T05:08:03;23.63;;;12.03;;
12145;SDS011;6136;47.032;15.398;2023-03-01T05:10:33;19.43;;;11.47;;
12145;SDS011;6136;47.032;15.398;2023-03-01T05:13:03;19.50;;;11.13;;
12145;SDS011;6136;47.032;15.398;2023-03-01T05:15:33;18.47;;;12.37;;
12145;SDS011;6136;47.032;15.398;2023-03-01T05:18:03;20.60;;;12.43;;
12145;SDS011;6136;47.032;15.398;2023-03-01T05:20:34;22.67;;;12.17;;
12145;SDS011;6136;47.032;15.398;2023-03-01T05:23:03;22.37;;;12.10;;
12145;SDS011;6136;47.032;15.398;2023-03-01T05:25:33;21.27;;;13.17;;
12145;SDS011;6136;47.032;15.398;2023-03-01T05:28:07;30.83;;;15.10;;
12145;SDS011;6136;47.032;15.398;2023-03-01T05:30:38;28.57;;;16.93;;
12145;SDS011;6136;47.032;15.398;2023-03-01T05:33:07;23.57;;;13.53;;
12145;SDS011;6136;47.032;15.398;2023-03-01T05:35:41;18.80;;;11.60;;
12145;SDS011;6136;47.032;15.398;2023-03-01T05:38:11;18.10;;;10.37;;
12145;SDS011;6136;47.032;15.398;2023-03-01T05:40:40;18.20;;;10.77;;
12145;SDS011;6136;47.032;15.398;2023-03-01T05:43:10;14.30;;;9.87;;
12145;SDS011;6136;47.032;15.398;2023-03-01T05:45:39;17.37;;;10.53;;
12145;SDS011;6136;47.032;15.398;2023-03-01T05:48:09;17.63;;;10.90;;
12145;SDS011;6136;47.032;15.398;2023-03-01T05:50:38;19.00;;;11.07;;
12145;SDS011;6136;47.032;15.398;2023-03-01T05:53:10;19.90;;;10.97;;
12145;SDS011;6136;47.032;15.398;2023-03-01T05:55:41;19.23;;;10.67;;
12145;SDS011;6136;47.032;15.398;2023-03-01T05:58:11;18.27;;;11.70;;
12145;SDS011;6136;47.032;15.398;2023-03-01T06:00:41;20.17;;;11.50;;
12145;SDS011;6136;47.032;15.398;2023-03-01T06:03:11;23.90;;;11.53;;
12145;SDS011;6136;47.032;15.398;2023-03-01T06:05:40;17.10;;;11.00;;
12145;SDS011;6136;47.032;15.398;2023-03-01T06:08:10;16.83;;;10.83;;
12145;SDS011;6136;47.032;15.398;2023-03-01T06:10:39;18.33;;;10.50;;
12145;SDS011;6136;47.032;15.398;2023-03-01T06:13:08;18.03;;;10.40;;
12145;SDS011;6136;47.032;15.398;2023-03-01T06:15:36;13.97;;;9.77;;
12145;SDS011;6136;47.032;15.398;2023-03-01T06:18:04;17.40;;;11.50;;
12145;SDS011;6136;47.032;15.398;2023-03-01T06:20:32;18.03;;;10.53;;
12145;SDS011;6136;47.032;15.398;2023-03-01T06:23:00;16.30;;;10.77;;
12145;SDS011;6136;47.032;15.398;2023-03-01T06:25:30;14.83;;;9.80;;
12145;SDS011;6136;47.032;15.398;2023-03-01T06:27:58;17.13;;;9.77;;
12145;SDS011;6136;47.032;15.398;2023-03-01T06:30:26;14.53;;;9.47;;
12145;SDS011;6136;47.032;15.398;2023-03-01T06:32:55;14.60;;;8.87;;
12145;SDS011;6136;47.032;15.398;2023-03-01T06:35:27;16.10;;;9.63;;
12145;SDS011;6136;47.032;15.398;2023-03-01T06:37:57;15.03;;;9.57;;
12145;SDS011;6136;47.032;15.398;2023-03-01T06:40:26;12.10;;;8.90;;
12145;SDS011;6136;47.032;15.398;2023-03-01T06:42:56;18.50;;;10.13;;
12145;SDS011;6136;47.032;15.398;2023-03-01T06:45:25;16.03;;;9.57;;
12145;SDS011;6136;47.032;15.398;2023-03-01T06:47:59;15.10;;;8.60;;
12145;SDS011;6136;47.032;15.398;2023-03-01T06:50:29;14.60;;;9.40;;
12145;SDS011;6136;47.032;15.398;2023-03-01T06:52:57;15.00;;;9.03;;
12145;SDS011;6136;47.032;15.398;2023-03-01T06:55:26;14.10;;;9.83;;
12145;SDS011;6136;47.032;15.398;2023-03-01T06:57:56;16.93;;;9.67;;
12145;SDS011;6136;47.032;15.398;2023-03-01T07:00:25;19.23;;;10.00;;
12145;SDS011;6136;47.032;15.398;2023-03-01T07:02:54;13.23;;;8.73;;
12145;SDS011;6136;47.032;15.398;2023-03-01T07:05:25;14.17;;;9.90;;
12145;SDS011;6136;47.032;15.398;2023-03-01T07:07:53;11.93;;;8.43;;
12145;SDS011;6136;47.032;15.398;2023-03-01T07:10:22;13.10;;;8.90;;
12145;SDS011;6136;47.032;15.398;2023-03-01T07:12:53;14.97;;;10.00;;
12145;SDS011;6136;47.032;15.398;2023-03-01T07:15:24;17.10;;;9.17;;
12145;SDS011;6136;47.032;15.398;2023-03-01T07:17:53;14.23;;;9.47;;
12145;SDS011;6136;47.032;15.398;2023-03-01T07:20:21;14.47;;;8.73;;
12145;SDS011;6136;47.032;15.398;2023-03-01T07:22:52;17.57;;;9.87;;
12145;SDS011;6136;47.032;15.398;2023-03-01T07:25:20;13.20;;;8.53;;
12145;SDS011;6136;47.032;15.398;2023-03-01T07:27:49;12.33;;;8.33;;
12145;SDS011;6136;47.032;15.398;2023-03-01T07:30:18;15.80;;;9.13;;
12145;SDS011;6136;47.032;15.398;2023-03-01T07:32:48;16.87;;;8.87;;
12145;SDS011;6136;47.032;15.398;2023-03-01T07:35:20;14.97;;;9.53;;
12145;SDS011;6136;47.032;15.398;2023-03-01T07:37:48;15.23;;;9.47;;
12145;SDS011;6136;47.032;15.398;2023-03-01T07:40:16;13.63;;;8.47;;
12145;SDS011;6136;47.032;15.398;2023-03-01T07:42:45;13.43;;;8.30;;
12145;SDS011;6136;47.032;15.398;2023-03-01T07:45:13;19.57;;;9.70;;
12145;SDS011;6136;47.032;15.398;2023-03-01T07:47:41;12.30;;;7.87;;
12145;SDS011;6136;47.032;15.398;2023-03-01T07:50:11;13.20;;;8.40;;
12145;SDS011;6136;47.032;15.398;2023-03-01T07:52:41;15.30;;;9.43;;
12145;SDS011;6136;47.032;15.398;2023-03-01T07:55:09;15.77;;;9.73;;
12145;SDS011;6136;47.032;15.398;2023-03-01T07:57:37;13.93;;;8.43;;
12145;SDS011;6136;47.032;15.398;2023-03-01T08:00:06;15.27;;;9.40;;
12145;SDS011;6136;47.032;15.398;2023-03-01T08:02:38;15.23;;;8.37;;
12145;SDS011;6136;47.032;15.398;2023-03-01T08:05:08;9.90;;;7.33;;
12145;SDS011;6136;47.032;15.398;2023-03-01T08:07:38;13.20;;;8.30;;
12145;SDS011;6136;47.032;15.398;2023-03-01T08:10:07;25.70;;;10.90;;
12145;SDS011;6136;47.032;15.398;2023-03-01T08:12:37;21.83;;;12.17;;
12145;SDS011;6136;47.032;15.398;2023-03-01T08:15:05;14.23;;;8.50;;
12145;SDS011;6136;47.032;15.398;2023-03-01T08:17:34;11.93;;;7.83;;
12145;SDS011;6136;47.032;15.398;2023-03-01T08:20:03;11.73;;;7.97;;
12145;SDS011;6136;47.032;15.398;2023-03-01T08:22:33;13.10;;;8.87;;
12145;SDS011;6136;47.032;15.398;2023-03-01T08:25:03;10.83;;;8.33;;
12145;SDS011;6136;47.032;15.398;2023-03-01T08:27:31;12.97;;;8.73;;
12145;SDS011;6136;47.032;15.398;2023-03-01T08:29:59;11.93;;;8.33;;
12145;SDS011;6136;47.032;15.398;2023-03-01T08:32:27;15.07;;;9.33;;
12145;SDS011;6136;47.032;15.398;2023-03-01T08:34:56;13.27;;;8.70;;
12145;SDS011;6136;47.032;15.398;2023-03-01T08:37:24;14.07;;;8.80;;
12145;SDS011;6136;47.032;15.398;2023-03-01T08:39:53;18.10;;;8.50;;
12145;SDS011;6136;47.032;15.398;2023-03-01T08:42:23;17.13;;;8.80;;
12145;SDS011;6136;47.032;15.398;2023-03-01T08:44:51;15.30;;;9.37;;
12145;SDS011;6136;47.032;15.398;2023-03-01T08:47:19;18.47;;;9.77;;
12145;SDS011;6136;47.032;15.398;2023-03-01T08:49:48;18.13;;;10.40;;
12145;SDS011;6136;47.032;15.398;2023-03-01T08:52:17;17.17;;;12.13;;
12145;SDS011;6136;47.032;15.398;2023-03-01T08:54:46;16.63;;;9.07;;
12145;SDS011;6136;47.032;15.398;2023-03-01T08:57:15;14.17;;;9.70;;
12145;SDS011;6136;47.032;15.398;2023-03-01T08:59:45;20.10;;;10.50;;
12145;SDS011;6136;47.032;15.398;2023-03-01T09:02:14;19.17;;;11.83;;
12145;SDS011;6136;47.032;15.398;2023-03-01T09:04:43;18.97;;;11.53;;
12145;SDS011;6136;47.032;15.398;2023-03-01T09:07:12;16.23;;;9.93;;
12145;SDS011;6136;47.032;15.398;2023-03-01T09:09:40;18.40;;;10.77;;
12145;SDS011;6136;47.032;15.398;2023-03-01T09:12:08;13.97;;;9.50;;
12145;SDS011;6136;47.032;15.398;2023-03-01T09:14:36;15.77;;;10.00;;
12145;SDS011;6136;47.032;15.398;2023-03-01T09:17:06;13.73;;;10.00;;
12145;SDS011;6136;47.032;15.398;2023-03-01T09:19:34;18.20;;;10.30;;
12145;SDS011;6136;47.032;15.398;2023-03-01T09:22:02;15.30;;;10.77;;
12145;SDS011;6136;47.032;15.398;2023-03-01T09:24:31;17.83;;;9.47;;
12145;SDS011;6136;47.032;15.398;2023-03-01T09:26:59;17.87;;;10.83;;
12145;SDS011;6136;47.032;15.398;2023-03-01T09:29:27;16.67;;;10.33;;
12145;SDS011;6136;47.032;15.398;2023-03-01T09:31:56;16.93;;;10.03;;
12145;SDS011;6136;47.032;15.398;2023-03-01T09:34:26;13.70;;;10.17;;
12145;SDS011;6136;47.032;15.398;2023-03-01T09:36:54;14.43;;;8.97;;
12145;SDS011;6136;47.032;15.398;2023-03-01T09:39:24;11.93;;;8.70;;
12145;SDS011;6136;47.032;15.398;2023-03-01T09:41:54;15.57;;;10.47;;
12145;SDS011;6136;47.032;15.398;2023-03-01T09:44:30;14.37;;;8.73;;
12145;SDS011;6136;47.032;15.398;2023-03-01T09:47:03;14.67;;;9.63;;
12145;SDS011;6136;47.032;15.398;2023-03-01T09:49:34;13.37;;;9.40;;
12145;SDS011;6136;47.032;15.398;2023-03-01T09:52:11;13.93;;;9.50;;
12145;SDS011;6136;47.032;15.398;2023-03-01T09:54:49;15.43;;;8.67;;
12145;SDS011;6136;47.032;15.398;2023-03-01T09:57:26;14.87;;;9.87;;
12145;SDS011;6136;47.032;15.398;2023-03-01T10:02:48;14.20;;;9.93;;
12145;SDS011;6136;47.032;15.398;2023-03-01T10:05:29;14.00;;;9.63;;
12145;SDS011;6136;47.032;15.398;2023-03-01T10:08:06;15.07;;;9.37;;
12145;SDS011;6136;47.032;15.398;2023-03-01T10:10:52;14.33;;;9.60;;
12145;SDS011;6136;47.032;15.398;2023-03-01T10:13:21;13.53;;;9.13;;
12145;SDS011;6136;47.032;15.398;2023-03-01T10:15:54;15.40;;;8.80;;
12145;SDS011;6136;47.032;15.398;2023-03-01T10:18:25;16.50;;;10.07;;
12145;SDS011;6136;47.032;15.398;2023-03-01T10:20:57;13.83;;;9.40;;
12145;SDS011;6136;47.032;15.398;2023-03-01T10:23:27;15.47;;;10.10;;
12145;SDS011;6136;47.032;15.398;2023-03-01T10:26:04;15.33;;;9.83;;
12145;SDS011;6136;47.032;15.398;2023-03-01T10:28:42;13.07;;;9.10;;
12145;SDS011;6136;47.032;15.398;2023-03-01T10:31:18;18.30;;;10.87;;
12145;SDS011;6136;47.032;15.398;2023-03-01T10:33:49;15.63;;;9.70;;
12145;SDS011;6136;47.032;15.398;2023-03-01T10:36:22;16.10;;;10.30;;
12145;SDS011;6136;47.032;15.398;2023-03-01T10:38:52;16.13;;;10.53;;
12145;SDS011;6136;47.032;15.398;2023-03-01T10:41:23;17.93;;;11.00;;
12145;SDS011;6136;47.032;15.398;2023-03-01T10:43:54;13.80;;;8.63;;
12145;SDS011;6136;47.032;15.398;2023-03-01T10:46:25;18.40;;;9.90;;
12145;SDS011;6136;47.032;15.398;2023-03-01T10:51:44;14.30;;;9.57;;
12145;SDS011;6136;47.032;15.398;2023-03-01T10:54:18;12.67;;;9.17;;
12145;SDS011;6136;47.032;15.398;2023-03-01T10:56:49;16.33;;;10.43;;
12145;SDS011;6136;47.032;15.398;2023-03-01T10:59:22;18.83;;;10.33;;
12145;SDS011;6136;47.032;15.398;2023-03-01T11:02:09;17.20;;;10.30;;
12145;SDS011;6136;47.032;15.398;2023-03-01T11:04:58;14.70;;;9.47;;
12145;SDS011;6136;47.032;15.398;2023-03-01T11:07:29;14.63;;;9.33;;
12145;SDS011;6136;47.032;15.398;2023-03-01T11:09:57;16.73;;;9.80;;
12145;SDS011;6136;47.032;15.398;2023-03-01T11:12:25;15.93;;;10.00;;
12145;SDS011;6136;47.032;15.398;2023-03-01T11:14:56;18.10;;;11.17;;
12145;SDS011;6136;47.032;15.398;2023-03-01T11:17:27;17.47;;;9.80;;
12145;SDS011;6136;47.032;15.398;2023-03-01T11:20:06;21.33;;;10.80;;
12145;SDS011;6136;47.032;15.398;2023-03-01T11:22:46;14.10;;;9.57;;
12145;SDS011;6136;47.032;15.398;2023-03-01T11:25:17;17.60;;;10.77;;
12145;SDS011;6136;47.032;15.398;2023-03-01T11:27:51;16.73;;;10.13;;
12145;SDS011;6136;47.032;15.398;2023-03-01T11:30:21;17.40;;;10.37;;
12145;SDS011;6136;47.032;15.398;2023-03-01T11:32:57;18.40;;;9.53;;
12145;SDS011;6136;47.032;15.398;2023-03-01T11:35:33;16.33;;;10.30;;
12145;SDS011;6136;47.032;15.398;2023-03-01T11:38:09;15.57;;;9.60;;
12145;SDS011;6136;47.032;15.398;2023-03-01T11:40:46;16.77;;;10.40;;
12145;SDS011;6136;47.032;15.398;2023-03-01T11:43:23;16.17;;;10.13;;
12145;SDS011;6136;47.032;15.398;2023-03-01T11:49:00;15.50;;;9.57;;
12145;SDS011;6136;47.032;15.398;2023-03-01T11:51:41;14.43;;;9.60;;
12145;SDS011;6136;47.032;15.398;2023-03-01T11:54:23;18.80;;;9.33;;
12145;SDS011;6136;47.032;15.398;2023-03-01T11:57:04;13.37;;;9.30;;
12145;SDS011;6136;47.032;15.398;2023-03-01T11:59:50;17.83;;;9.93;;
12145;SDS011;6136;47.032;15.398;2023-03-01T12:02:34;17.73;;;10.23;;
12145;SDS011;6136;47.032;15.398;2023-03-01T12:05:16;17.43;;;9.30;;
12145;SDS011;6136;47.032;15.398;2023-03-01T12:07:53;16.60;;;10.50;;
12145;SDS011;6136;47.032;15.398;2023-03-01T12:10:29;12.93;;;8.87;;
12145;SDS011;6136;47.032;15.398;2023-03-01T12:13:09;14.57;;;9.03;;
12145;SDS011;6136;47.032;15.398;2023-03-01T12:15:54;16.43;;;9.20;;
12145;SDS011;6136;47.032;15.398;2023-03-01T12:18:56;16.00;;;9.00;;
12145;SDS011;6136;47.032;15.398;2023-03-01T12:21:39;14.13;;;8.93;;
12145;SDS011;6136;47.032;15.398;2023-03-01T12:27:21;17.20;;;9.43;;
12145;SDS011;6136;47.032;15.398;2023-03-01T12:30:04;15.93;;;8.93;;
12145;SDS011;6136;47.032;15.398;2023-03-01T12:32:47;20.00;;;8.93;;
12145;SDS011;6136;47.032;15.398;2023-03-01T12:35:36;18.27;;;9.53;;
12145;SDS011;6136;47.032;15.398;2023-03-01T12:38:40;13.87;;;8.97;;
12145;SDS011;6136;47.032;15.398;2023-03-01T12:44:14;12.00;;;8.80;;
12145;SDS011;6136;47.032;15.398;2023-03-01T12:46:53;14.87;;;8.90;;
12145;SDS011;6136;47.032;15.398;2023-03-01T12:49:34;14.03;;;8.47;;
12145;SDS011;6136;47.032;15.398;2023-03-01T12:52:10;13.53;;;8.03;;
12145;SDS011;6136;47.032;15.398;2023-03-01T12:54:42;14.63;;;8.43;;
12145;SDS011;6136;47.032;15.398;2023-03-01T12:57:12;12.37;;;7.53;;
12145;SDS011;6136;47.032;15.398;2023-03-01T12:59:50;12.53;;;8.73;;
12145;SDS011;6136;47.032;15.398;2023-03-01T13:02:30;11.83;;;8.17;;
12145;SDS011;6136;47.032;15.398;2023-03-01T13:05:13;12.43;;;7.63;;
12145;SDS011;6136;47.032;15.398;2023-03-01T13:07:53;17.17;;;8.37;;
12145;SDS011;6136;47.032;15.398;2023-03-01T13:10:26;14.13;;;8.70;;
12145;SDS011;6136;47.032;15.398;2023-03-01T13:13:02;13.23;;;8.07;;
12145;SDS011;6136;47.032;15.398;2023-03-01T13:15:41;14.33;;;8.47;;
12145;SDS011;6136;47.032;15.398;2023-03-01T13:20:56;9.60;;;7.80;;
12145;SDS011;6136;47.032;15.398;2023-03-01T13:23:28;12.63;;;8.27;;
12145;SDS011;6136;47.032;15.398;2023-03-01T13:26:10;14.10;;;9.03;;
12145;SDS011;6136;47.032;15.398;2023-03-01T13:28:50;14.37;;;8.27;;
12145;SDS011;6136;47.032;15.398;2023-03-01T13:37:22;10.33;;;7.53;;
12145;SDS011;6136;47.032;15.398;2023-03-01T13:39:59;11.47;;;8.10;;
12145;SDS011;6136;47.032;15.398;2023-03-01T13:42:37;13.80;;;7.87;;
12145;SDS011;6136;47.032;15.398;2023-03-01T13:45:14;13.10;;;8.43;;
12145;SDS011;6136;47.032;15.398;2023-03-01T13:47:49;17.77;;;9.00;;
12145;SDS011;6136;47.032;15.398;2023-03-01T13:50:22;19.13;;;9.63;;
12145;SDS011;6136;47.032;15.398;2023-03-01T13:52:53;14.73;;;8.60;;
12145;SDS011;6136;47.032;15.398;2023-03-01T13:55:36;12.27;;;7.83;;
12145;SDS011;6136;47.032;15.398;2023-03-01T13:58:14;14.17;;;7.67;;
12145;SDS011;6136;47.032;15.398;2023-03-01T14:00:46;11.23;;;7.43;;
12145;SDS011;6136;47.032;15.398;2023-03-01T14:03:17;11.67;;;8.07;;
12145;SDS011;6136;47.032;15.398;2023-03-01T14:05:57;9.63;;;7.00;;
12145;SDS011;6136;47.032;15.398;2023-03-01T14:08:39;11.63;;;7.33;;
12145;SDS011;6136;47.032;15.398;2023-03-01T14:11:20;11.93;;;7.37;;
12145;SDS011;6136;47.032;15.398;2023-03-01T14:14:42;11.13;;;6.63;;
12145;SDS011;6136;47.032;15.398;2023-03-01T14:17:19;9.37;;;6.83;;
12145;SDS011;6136;47.032;15.398;2023-03-01T14:19:57;12.30;;;6.47;;
12145;SDS011;6136;47.032;15.398;2023-03-01T14:22:32;12.13;;;7.17;;
12145;SDS011;6136;47.032;15.398;2023-03-01T14:25:03;16.97;;;7.23;;
12145;SDS011;6136;47.032;15.398;2023-03-01T14:27:42;10.40;;;6.13;;
12145;SDS011;6136;47.032;15.398;2023-03-01T14:30:13;13.17;;;6.97;;
12145;SDS011;6136;47.032;15.398;2023-03-01T14:32:51;9.33;;;6.47;;
12145;SDS011;6136;47.032;15.398;2023-03-01T14:35:23;11.83;;;6.93;;
12145;SDS011;6136;47.032;15.398;2023-03-01T14:37:53;11.77;;;7.20;;
12145;SDS011;6136;47.032;15.398;2023-03-01T14:40:22;9.97;;;6.77;;
12145;SDS011;6136;47.032;15.398;2023-03-01T14:42:53;11.97;;;7.30;;
12145;SDS011;6136;47.032;15.398;2023-03-01T14:45:22;12.53;;;7.90;;
12145;SDS011;6136;47.032;15.398;2023-03-01T14:47:53;11.53;;;6.90;;
12145;SDS011;6136;47.032;15.398;2023-03-01T14:50:25;12.03;;;7.27;;
12145;SDS011;6136;47.032;15.398;2023-03-01T14:52:55;11.63;;;8.37;;
12145;SDS011;6136;47.032;15.398;2023-03-01T14:55:27;13.83;;;7.90;;
12145;SDS011;6136;47.032;15.398;2023-03-01T14:57:57;12.43;;;7.60;;
12145;SDS011;6136;47.032;15.398;2023-03-01T15:00:29;16.93;;;8.47;;
12145;SDS011;6136;47.032;15.398;2023-03-01T15:03:00;15.73;;;7.63;;
12145;SDS011;6136;47.032;15.398;2023-03-01T15:05:37;11.87;;;7.97;;
12145;SDS011;6136;47.032;15.398;2023-03-01T15:08:07;14.03;;;7.23;;
12145;SDS011;6136;47.032;15.398;2023-03-01T15:10:55;10.70;;;7.33;;
12145;SDS011;6136;47.032;15.398;2023-03-01T15:13:25;14.00;;;7.53;;
12145;SDS011;6136;47.032;15.398;2023-03-01T15:16:01;11.43;;;7.97;;
12145;SDS011;6136;47.032;15.398;2023-03-01T15:18:33;16.47;;;7.43;;
12145;SDS011;6136;47.032;15.398;2023-03-01T15:21:07;15.50;;;8.53;;